events-overview

Kinetic Half

 

Overall Men

Lake Anna State Park 4/21/2007 09:00AM

** Results are for the private use of participants and are the Intellectual Property of Set Up Events. Unauthorized use of these results is prohibited.

Place Age Cat. NAME CITY/STATE Rank SWIM Rank T1 Rank BIKE Rank T2 Rank RUN PENALTY TIME DQ
127EMNICK NOTHOFFWINSTON-SALEM NC4500:24:323200:02:38102:20:471300:01:05401:25:54 04:14:54 
228EMANDREW SAUSEWASHINGTON DC500:20:01800:01:51502:26:21200:00:49801:26:56 04:15:56 
320 BENJAMIN BARTLETTARLINGTON VA1700:21:564600:03:02302:25:043600:01:24701:26:37 04:18:01 
436EMDAVID GLOVERRESTON VA2000:22:576300:03:19902:27:13300:00:52301:24:41 04:18:59 
525EMMIKE MARSTELLEREMMAUS PA5100:24:47300:01:40402:25:261200:01:031101:33:02 04:25:54 
643EMDOUGLAS MAROCCOMONTCLAIR VA1800:22:004400:02:592402:35:101000:01:011001:28:49 04:29:58 
726 DANIEL BRIENZAARLINGTON VA3800:24:04900:01:52202:22:581900:01:122601:40:35 04:30:39 
834 ERIC DEMPSTERWINCHESTER VA3900:24:063600:02:461002:27:332100:01:121801:36:48 04:32:24 
938 STEVE MEININGERCLARKSVILLE MD3500:23:52400:01:401102:27:341600:01:072101:38:50 04:33:02 
1038 JIMI YOUNGLAINGSBURG MI6300:25:206000:03:17702:26:58900:01:011601:36:34 04:33:08 
1131 TYLER VAN RENSSELAERRICHMOND VA6400:25:215200:03:073002:37:15800:00:59601:26:31 04:33:11 
1235 RICHARD RAPINEALEXANDRIA VA15200:30:3811500:04:341502:30:567100:01:51501:25:55 04:33:53 
1325 ROBERT FERRISCARY NC2900:23:35         04:33:58 
1432EMBRADY DEHOUSTOAK HILL VA5600:25:0613400:05:021302:28:572400:01:151201:33:59 04:34:17 
1537 DWAYNE SMITHHANOVER PA4700:24:393500:02:452902:37:013900:01:28901:28:40 04:34:31 
1629 KENN OLDHAMSILVER SPRING MD2400:23:24200:01:30602:26:493400:01:233501:44:21 04:37:25 
1741MCWES HAYESSOUTHBRIDGE VA5200:24:47700:01:502302:34:32100:00:371701:36:46 04:38:31 
1840 SCOTT BALDWINRESTON VA6100:25:172500:02:251202:28:142600:01:182901:41:31 04:38:43 
1928 BROOKS MODIEPARMA HEIGHTS OH4900:24:425600:03:1011402:55:304000:01:30201:14:28 04:39:17 
2036 SEAN WARDWASHINGTON DC3600:23:5710100:04:071402:30:323300:01:232501:40:19 04:40:17 
2134MCCHRIS BACHLALEXANDRIA VA1500:21:458000:03:393702:38:142500:01:171501:36:16 04:41:11 
2230EMBRIAN DIEPOLDRALEIGH NC1400:21:393700:02:482602:35:431100:01:022401:40:15 04:41:25 
2332 JEFF KRONEALEXANDRIA VA           04:42:32 
2441 DAVID JONESCULPEPER VA9800:27:046100:03:181602:31:145400:01:402301:40:00 04:43:13 
2536 JOE NEWTONWEST CHESTER OH14600:30:2611300:04:333402:37:573000:01:221301:35:16 04:49:33 
2626 MICHAEL CODYCONSHOHOCKEN PA4300:24:231300:01:592102:34:11400:00:564701:48:40 04:50:07 
2750 FRANK MAZURLUSBY MD3700:24:037900:03:382802:37:0013300:02:383101:43:10 04:50:27 
2844 JOHN SHAFERSTAFFORD VA11100:28:086200:03:181702:32:516100:01:443601:44:38 04:50:37 
2932 DENNIS PIKECARRBORO NC2800:23:295000:03:073202:37:423700:01:263801:46:27 04:52:10 
3044 JUAN FERNANDO CONDE DONOSONEW CANAAN CT9700:27:021200:01:583102:37:304600:01:332801:41:0700:04:0004:53:08 
PlaceAgeCat.NAMECITY/STATERankSWIMRankT1RankBIKERankT2RankRUNPENALTYTIMEDQ
3138 LEN PHILOSUFFOLK VA2300:23:233000:02:34    1901:37:1400:04:0004:53:51 
3240 CHRIS HAASWILLIAMSBURG VA11600:28:2612200:04:471802:33:396000:01:434001:46:47 04:55:19 
3331 WES RADETSKYCHESAPEAKE VA3400:23:471500:02:044302:40:246600:01:464401:47:44 04:55:43 
3440 DON WAGNERLITITZ PA13100:29:2718100:06:314502:40:394400:01:322001:38:14 04:56:22 
3538 PETER WARNERFAIRFAX VA8000:26:175300:03:082002:34:091700:01:085601:51:45 04:56:25 
3638 DOUG WOODSGAITHERSBURG MD5000:24:4410600:04:222202:34:249800:02:105301:50:58 04:56:35 
3740 DOMINIC CIAVATTACHAPEL HILL NC4600:24:3717300:06:175402:43:2512500:02:302201:39:52 04:56:39 
3826 TROY MITCHELLWILMINGTON NC1200:21:201400:02:0119803:26:0416400:03:22101:04:48 04:57:33Y
3935 CRAIG ELLISHERNDON VA14000:29:5915900:05:48802:27:0814400:02:466201:53:34 04:59:13 
4041 JIM CHOPASROCKVILLE MD20600:34:3911400:04:341902:34:0413500:02:393401:44:11 05:00:05 
4129 ALEX FYFEWASHINGTON DC18200:32:1420100:07:284702:42:2315600:03:061401:35:49 05:00:58 
4231 TIMOTHY STRAUBKING OF PRUSSIA PA300:18:18100:01:274602:41:284300:01:328301:59:01 05:01:45Y
4346 BILL BEYERRESTON VA100:16:31500:01:462502:35:116700:01:509502:02:3600:04:0005:01:52Y
4448 GEORGE JACOBSLAUREL MD19300:33:298600:03:473302:37:5010300:02:113701:45:07 05:02:22 
4525 PRICHARD KEELYGOLDSBORO NC1900:22:472000:02:167802:48:566300:01:443901:46:46 05:02:27 
4637 GEORGE TY SIMPSONWASHINGTON DC7700:26:037400:03:325302:43:234700:01:334601:48:09 05:02:39 
4726 JOE GORGOLNORFOLK VA1100:21:191000:01:5511002:54:0311300:02:173201:44:00 05:03:32Y
4831 PETER LOGANANNAPOLIS MD2200:23:196900:03:2610402:53:035900:01:432701:40:4100:04:0005:06:11 
4938 MARC BUXBAUMWAKE FOREST NC8400:26:2711200:04:316202:46:234800:01:364301:47:40 05:06:34 
5028 DANNY SERPICOELLICOTT CITY MD800:20:526600:03:246002:46:026500:01:456601:55:04 05:07:04 
5145 ANDREW GRAZIANOLONGMONT CO8700:26:3812700:04:534902:42:452200:01:125801:52:38 05:08:04 
5220 IRA GALLAGHERPOQUOSON VA7300:25:5412100:04:464402:40:3310900:02:156901:55:52 05:09:17 
5352 ROB COLBURNASHBURN VA6500:25:293100:02:385002:42:497400:01:527701:57:39 05:10:26 
5433 JESSE METCALFWASHINGTON DC3200:23:459900:04:01       05:11:01 
5521 JOSH ANDRESANNAPOLIS MD200:17:404500:02:5911802:56:3217900:04:035201:50:14 05:11:26 
5629 JEFF SCHMIDTRICHMOND VA10800:27:551900:02:158502:49:368700:02:015101:50:02 05:11:48 
5722CJONATHAN ANDERSONFAIRFAX VA3100:23:429100:03:534202:40:212000:01:129602:02:42 05:11:48 
5848 JOHN MAZURALEXANDRIA VA4000:24:0914700:05:206602:46:569300:02:056101:53:25 05:11:54 
5920 KARSTEN BLOOMSTROMLEXINGTON VA5300:24:484200:02:5311202:55:096200:01:444201:47:35 05:12:07 
6043 KENNETH DOWNERYORKTOWN VA11900:28:309800:03:583502:37:583100:01:239302:01:38 05:13:24 
6137 JAMES KNAACKARLINGTON VA13000:29:212900:02:314102:39:327900:01:558802:00:09 05:13:27 
PlaceAgeCat.NAMECITY/STATERankSWIMRankT1RankBIKERankT2RankRUNPENALTYTIMEDQ
6223 ANDY BOCKUSANNAPOLIS MD900:21:119500:03:5711902:57:068000:01:564901:49:27 05:13:35 
6329 JEFF DYERARLINGTON VA1600:21:505900:03:1510202:53:012900:01:216701:55:13 05:14:39 
6452 BRADLEY PAFFORDWOODBRIDGE VA7400:25:5513000:04:547002:47:417200:01:516501:54:29 05:14:49 
6531 ENRIQUE TOMEUVIRGINIA BEACH VA2600:23:284000:02:498702:49:45700:00:588101:57:57 05:14:56 
6644 JOE YOUNKINSBLAIRS MILLS PA6700:25:318400:03:443902:38:4213600:02:4110302:05:25 05:16:01 
6731 DAMON TAAFFEARLINGTON VA    10602:53:3415000:02:585901:52:54 05:16:25 
6844 OLEG VENGEROWSKYMANNING SC11000:28:0216000:05:505102:42:5810800:02:137601:57:33 05:16:34 
6956 MARK DEANDOYLESTOWN PA3000:23:4117700:06:247602:48:475700:01:427201:56:37 05:17:07 
7037 DOUGLAS HIGGONSNORFOLK VA3300:23:472800:02:299302:51:1717000:03:407001:56:03 05:17:14Y
7136 ARPAD ROMANDYALEXANDRIA VA6800:25:398300:03:408402:49:35600:00:588001:57:49 05:17:40 
7240 BRUCE MILLERFAIRBANKS AK4100:24:102400:02:246102:46:104900:01:369802:04:23 05:18:41 
7331 BRADLEY WEDEMEYERASHBURN VA9900:27:0814000:05:0613103:01:3211000:02:153301:44:07 05:20:06 
7439 DARIO TIRADOARLINGTON VA14900:30:319200:03:563802:38:3913700:02:4210002:04:35 05:20:21 
7532 ROBERT MOSCATORALEIGH NC13400:29:324800:03:038602:49:435800:01:427101:56:32 05:20:31 
7623 AARON MACGRAYLAVALE MD21300:36:373800:02:488002:49:002700:01:205401:51:02 05:20:45 
7725MCDAN LASKOBETHESDA MD        13202:12:13 05:21:22 
7838 IVAN SANTILLANRIVERSIDE CT13600:29:364900:03:074002:38:587800:01:5312202:09:00 05:22:32 
7942 TIM COULSONROCKVILLE MD20200:34:173300:02:415502:43:252800:01:218902:01:09 05:22:51 
8038 J.T. YOUNG IIIJACKSONVILLE NC    6702:47:0714700:02:5412302:09:17 05:23:32Y
8149 PAUL NOWICKICARY NC10100:27:2417500:06:198202:49:179400:02:068201:58:46 05:23:50 
8243 ROBERT CONLEYVIENNA VA17200:31:558800:03:507902:48:568900:02:027301:57:12 05:23:52 
8340 DAVID JENKINSONCENTREVILLE VA8600:26:384100:02:504802:42:3210200:02:1112602:10:29 05:24:38 
8444 ROBERT MOODYDURHAM NC12300:28:4115100:05:229202:51:1011100:02:157501:57:19 05:24:46 
8540 RICHARD STALLINGSFAIRFAX VA16200:31:199000:03:526502:46:427300:01:529202:01:35 05:25:18 
8632CDAVID DAVIDFREDERICK MD2700:23:295400:03:097302:48:095600:01:4112402:09:22 05:25:49 
8723CKURT LOBAUGHANNAPOLIS MD700:20:219600:03:5815003:06:187000:01:516301:53:35 05:26:01 
8832 STEPHEN TRETOLAJERSEY CITY NJ10400:27:339700:03:5814203:04:1113800:02:434501:47:56 05:26:19 
8936 MICHAEL HORGANNEW YORK NY9500:26:5617800:06:2512602:59:2412700:02:335501:51:09 05:26:25 
9035 DANIEL WILLISSWANSBORO NC15000:30:337000:03:2710002:52:453200:01:238701:59:50 05:27:56 
9142 THOMAS GLASSKENSINGTON MD15500:31:0113100:04:5911302:55:2615800:03:116401:53:38 05:28:12 
9258 JOHN GREGORYROANOKE VA7800:26:1513800:05:0410702:53:459100:02:049002:01:18 05:28:24 
PlaceAgeCat.NAMECITY/STATERankSWIMRankT1RankBIKERankT2RankRUNPENALTYTIMEDQ
9333 GREG PROSSERDOWNINGTOWN PA8800:26:3915200:05:2415403:06:5410000:02:104101:47:24 05:28:29 
9420 DANIEL MURPHYANNAPOLIS MD11300:28:1710000:04:0213003:01:174500:01:335001:49:3100:04:0005:28:38 
9521 JON ANDERSONHENDERSON NC10200:27:3212500:04:518302:49:305500:01:4110802:06:38 05:30:10 
9645 BILL GERZABEKSPRINGFIELD PA10700:27:508100:03:405702:44:344200:01:3213302:12:40 05:30:14 
9737 A. FENTYWASHINGTON DC17000:31:4711100:04:3110102:52:5716500:03:237801:57:40 05:30:16 
9839 GORDIE ZEIGLERROANOKE VA17500:31:5815600:05:467202:48:058500:01:589702:02:55 05:30:41 
9940 MONTY BUCHANANAPEX NC16600:31:4015500:05:309802:52:0710700:02:138601:59:33 05:31:00 
10035 JOEL MYERSVIRGINIA BEACH VA14100:30:0013500:05:035902:45:174100:01:3212702:10:32 05:32:22 
10132 MATTHEW ROBERTSJACKSONVILLE NC12400:28:451100:01:589402:51:382300:01:1512502:09:41 05:33:14 
10240 JAY STANLEYARLINGTON VA5500:24:598500:03:469002:50:38500:00:5713502:14:05 05:34:23 
10322 BUCKY BEYERRESTON VA6900:25:436800:03:265602:44:193500:01:2415002:19:42 05:34:31 
10441 JAMES SNAREALEXANDRIA VA9200:26:4016400:06:0118603:17:249900:02:103001:42:31 05:34:44 
10559 LARRY ATKINSTAKOMA PARK MD16000:31:1313700:05:0410302:53:0211400:02:189902:04:34 05:36:09 
10641 THOMAS DOWDBROADLANDS VA12600:28:5712400:04:5010802:53:4613900:02:4311002:07:02 05:37:16 
10759 WILLIAM WRENARLINGTON VA5800:25:0616100:05:5115703:07:237500:01:537901:57:46 05:37:56 
10842 CHARLES BRODSKYWASHINGTON DC17700:32:0520600:08:0611602:56:1111900:02:238501:59:31 05:38:14 
10944 SAM BETHUNEVIRGINIA BEACH VA22400:43:017300:03:3112002:57:405200:01:396001:53:05 05:38:54 
11020 MITCH MCCARRELANNAPOLIS MD21400:36:4411900:04:4015603:07:186400:01:444801:48:44 05:39:09 
11126 DAVE AUERBACHARLINGTON VA2100:23:10600:01:477102:47:4813100:02:3716002:24:48 05:40:07Y
11228CJOE DYERARLINGTON VA2500:23:2512300:04:5013203:01:357700:01:5312102:08:56 05:40:37 
11327CMARC CROSSEVIRGINIA BEACH VA10500:27:3411800:04:399502:51:426900:01:5013902:15:47 05:41:31 
11453 ROBERT RUSSONHAGERSTOWN MD20100:34:1712000:04:4314103:04:079000:02:035701:52:3800:04:0005:41:46 
11546CCHRIS MALONEMIDDLEBURG VA11700:28:284300:02:579702:51:4817400:03:4813802:14:49 05:41:48 
11639 EDWARD BUMPMIDLOTHIAN VA16500:31:3413900:05:0412202:57:509200:02:0410202:05:21 05:41:52 
11728 ALVARO DE LA CUEVAARLINGTON VA21200:36:132700:02:288802:50:098100:01:5613002:11:49 05:42:34 
11834 JOHN STANNFRONT ROYAL VA19700:34:045500:03:1010502:53:171400:01:0513102:11:55 05:43:29 
11938 CHIP LAMPHERERALEIGH NC16700:31:4010900:04:2812802:59:5114900:02:5610402:05:31 05:44:24 
12036 STEPHEN REGGIOLORTON VA20000:34:1618200:06:3516003:07:4015400:03:046801:55:15 05:46:48 
12128 MATTHEW DOLFIPITTSBURGH PA12700:29:032600:02:278902:50:387600:01:5315402:22:52 05:46:50 
12230CJOHN CHRISTMASRICHMOND VA18900:33:0517400:06:1712402:58:5514000:02:4410502:06:12 05:47:12 
12339 SCOTT TALBOTTBETHESDA MD13300:29:3112600:04:5317403:13:448300:01:577401:57:16 05:47:18 
PlaceAgeCat.NAMECITY/STATERankSWIMRankT1RankBIKERankT2RankRUNPENALTYTIMEDQ
12427MCPAUL HABENICHTSWANSBORO NC19800:34:1316200:05:536302:46:239600:02:0914802:18:58 05:47:33 
12531 JASON DALLEYARLINGTON VA13700:29:406400:03:2114603:04:535300:01:4011402:08:02 05:47:34 
12646 DAVID TURVENEARLINGTON VA8300:26:2618600:06:3915503:07:016800:01:5011102:07:19 05:49:13 
12736 PAUL WRIGHTBUENA VISTA VA15900:31:127700:03:376402:46:3117200:03:4615702:24:12 05:49:15 
12834MCLEWYN POAGEVIRGINIA BEACH VA9000:26:4010400:04:1915303:06:4917600:03:5111502:08:04 05:49:41 
12920 ALEXANDER KELLEYLEXINGTON VA18300:32:2011000:04:2812302:58:469500:02:0613402:13:32 05:51:11 
13048 CHRIS REESECLAREMONT NC6000:25:145100:03:0714903:05:2416700:03:3113602:14:10 05:51:24Y
13132MCDAVID CHEEKLAUREL MD18100:32:1418000:06:2915103:06:2019100:05:199402:01:49 05:52:09 
13237 VAN YOUNKINSPORTS VA15600:31:068700:03:5016103:08:0313400:02:3810902:06:51 05:52:26 
13349 BILL MURRAYARLINGTON VA18500:32:3214500:05:189902:52:3914300:02:4614902:19:42 05:52:55 
13446 ERNIE CASTROOAK HILL VA10000:27:1715300:05:2616603:09:3012100:02:2611902:08:35 05:53:13 
13537 WILLIAM LUECKRICHMOND VA8100:26:2320000:07:2115903:07:3117100:03:4411602:08:18 05:53:15Y
13633 CARLTON HINESNEW YORK NY12500:28:5221100:08:1511702:56:2120900:07:2711802:08:2400:04:0005:53:18 
13736 DANI TUNNICLIFFEVIRGINIA BEACH VA15400:30:5810500:04:218102:49:123800:01:2716202:28:06 05:54:02 
13824CBEN CHALFANTBLACKSBURG VA400:19:186500:03:2213803:03:3821200:12:0414002:15:55 05:54:17Y
13940MCSCOTT BAUERHERDON VA16300:31:2714200:05:1417003:10:219700:02:0910702:06:35 05:55:44 
14046 BILL BACCILEESBURG VA8900:26:3921400:08:3316303:08:2918700:04:3911202:07:29 05:55:49Y
14140 T. HARRISCHARLOTTESVILLE VA7100:25:442300:02:246902:47:1710600:02:1217702:38:57 05:56:32 
14237 STEVE DORLENHOBOKEN NJ21100:36:1320300:07:3513603:03:1316300:03:2110602:06:22 05:56:43 
14333 WALTER SHARPLEYROANOKE VA17900:32:0817900:06:2710902:53:4817300:03:4715102:21:12 05:57:20 
14438CCRAIG SARAVOWASHINGTON DC VA14200:30:0518700:06:4212902:59:5818000:04:0314302:16:46 05:57:33 
14549 DESMOND HANNONCROWNSVILLE MD4200:24:2210200:04:0914403:04:4015200:03:0214702:18:2600:04:0005:58:37 
14652 ALFREDO PICOBUENOS AIRES XX22200:41:3214400:05:1814003:04:0615900:03:1210102:04:37 05:58:43 
14738 WILLIAM COLSTONARLINGTON VA8500:26:2920800:08:0916903:10:0020300:06:0512802:10:33 06:01:15 
14837 CHUCK POTTERCAMBRIDGE MD14700:30:296700:03:2612102:57:425000:01:3716502:28:48 06:02:01 
14929 NATHAN FRANZWASHINGTON DC5900:25:115700:03:1117803:14:4811600:02:2114402:16:50 06:02:19 
15036 JEFF DAVISONCONNEAUT OH20800:35:2410300:04:0911102:55:025100:01:3816302:28:06 06:04:17 
15135 CLAY TOLSONSPRINGFIELD VA17300:31:5516900:06:096802:47:1210100:02:1117502:36:59 06:04:25 
15240 DOUGLAS NEELYCHARLOTTE NC11500:28:2614800:05:2015803:07:2417500:03:4811702:08:1800:12:0006:05:14 
15344 SCOTT MADDENBETHESDA MD14500:30:2120500:07:547402:48:3918800:04:4217302:34:49 06:06:23 
15425MCMIKE HALLNORFOLK VA12000:28:31         06:07:01 
PlaceAgeCat.NAMECITY/STATERankSWIMRankT1RankBIKERankT2RankRUNPENALTYTIMEDQ
15535 JOHN PERCHERKEBRISTOW VA19200:33:2510800:04:2712502:58:5710400:02:1116602:29:14 06:08:13 
15634CMATHEW WINTERSCATLETTSBURG KY9600:26:587600:03:357502:48:428600:02:0119402:47:01 06:08:15 
15755 STEVE BRADLEYPURCELLVILLE VA13900:29:552200:02:2213503:03:0010500:02:1117002:31:25 06:08:52 
15840 DAVID ROBINSONEDGEWATER MD1000:21:181600:02:077702:48:5218900:04:5419802:52:45 06:09:54Y
15938 DAVID LETTBURKE VA5700:25:063900:02:4919103:19:0216800:03:3715802:24:22 06:14:55Y
16033 JOHN MAHERSNEADS FERRY NC12800:29:0920400:07:4320603:32:1612400:02:298401:59:2900:04:0006:15:05 
16137 MICHAEL MUSOLFCARY NC20500:34:3119100:06:5213403:02:5814100:02:4516102:24:4800:04:0006:15:52 
16245 MARK HAWKINSHICKORY NC4800:24:413400:02:4517603:13:5319300:05:3614602:17:5600:12:0006:16:49Y
16338 DAVID TUFTSWINCHESTER VA17400:31:5717200:06:1417503:13:5113000:02:3415302:22:49 06:17:24 
16423MCSTEVEN JENNINGSBELTSVILLE MD14400:30:187100:03:2818103:15:0518500:04:2515902:24:33 06:17:46 
16538 PAUL DERRICKROANOKE VA15100:30:3711600:04:3712702:59:308200:01:5718402:41:15 06:17:55 
16639 THEO STAHLHINTON VA21700:38:5622200:12:5917103:12:1820700:07:2312002:08:40 06:20:14 
16720 BRANDON HENDRICKSONSTAFFORD VA9300:26:4918800:06:4414803:05:2012800:02:3317802:38:59 06:20:23 
16833 KENT LASSMANALEXANDRIA VA1300:21:307200:03:3016403:08:4212200:02:2718902:45:01 06:21:08 
16945CSCOTT SMITHPEPPER PIKE OH19500:33:3816700:06:0619503:22:4116600:03:2414102:16:00 06:21:48 
17023 RYAN THOMASWOODBRIDGE CT19600:33:567800:03:3817203:12:358800:02:0116802:29:41 06:21:49 
17150CROY RUMSEYFAIRFAX VA11200:28:0811700:04:3814503:04:5011800:02:2318502:43:09 06:23:05 
17241 DENNIS SCRIBNERROANOKE VA12900:29:1912800:04:5318003:14:5513200:02:3717102:31:43 06:23:25 
17346 RICH GAULARLINGTON VA18600:32:4419200:06:5614303:04:2414800:02:5517202:32:4400:04:0006:23:41 
17424MCERIC SANTELLANAFORT SAM HOUSTON TX           06:24:16 
17538MCJOHN SZCZEPANOWSKIWASHINGTON DC    19403:21:5721300:13:039102:01:28 06:24:17 
17638 HENRY TWEDDLEALEXANDRIA VA6200:25:1815000:05:2117303:13:1112000:02:2518302:39:46 06:26:01 
17734CDAVID CZARNECKIARLINGTON VA14300:30:1115800:05:4719703:25:0415300:03:0415202:22:01 06:26:05 
17834 TODD STUCKEYPURCELLVILLE VA13500:29:3319300:06:5816203:08:2514200:02:4617902:39:03 06:26:43 
17935 SALMAN MAHERFUQUAY VARINA NC18000:32:088200:03:4013703:03:261500:01:0619302:46:59 06:27:18 
18028 ARI HOUSERBERWYN HEIGHTS MD22300:41:3921500:09:0218303:15:1118200:04:0814502:17:27 06:27:25 
18129 KEVIN WALSHWASHINGTON DC14800:30:3116800:06:0818803:18:3212900:02:3416902:30:53 06:28:36 
18227 DANIEL DIECKHAUSARLINGTON VA21000:36:0516300:05:5819903:26:3317700:03:5314202:16:26 06:28:53 
18338MCWESLEY HUFFFRONT ROYAL VA13800:29:5420700:08:0718903:18:5319000:04:5516702:29:33 06:31:20 
18441 WILLIAM ROLLINSFAIRFAX VA7900:26:1719600:07:1318503:15:5414500:02:4818102:39:18 06:31:27 
18538 GARY KARTONARLINGTON VA16100:31:1419400:06:5921403:40:3319600:05:4411302:07:32 06:31:59 
PlaceAgeCat.NAMECITY/STATERankSWIMRankT1RankBIKERankT2RankRUNPENALTYTIMEDQ
18637CDAVID HARRISNEW YORK NY21900:39:4617000:06:1120403:31:1520400:06:1412902:10:40 06:34:05 
18720 GEOFF HODGESVIRGINIA BEACH VA10900:27:5913300:05:029602:51:4314600:02:5020203:03:1800:04:0006:34:50 
18846 DARRYL JOHNSONGAINESVILLE VA4400:24:2516500:06:0120303:30:2220200:06:0116402:28:43 06:35:29Y
18921MCKEITH ZEIERHOLBROOK NY20300:34:2313200:05:0121003:34:4215500:03:0613702:14:3800:04:0006:35:49 
19030 WEI LUMONTGOMERY VILLAGE MD19100:33:1319000:06:5116503:08:4417800:03:5618702:43:52 06:36:34 
19134CNED PAYNERICHMOND VA17100:31:499300:03:5617903:14:4816000:03:1318802:44:23 06:38:08 
19236MCWILLIAM GIBSONSAN ANTONIO TX18400:32:2119900:07:1721904:35:08     06:39:19 
19332 JAY MOONARLINGTON VA19900:34:1520200:07:3519003:18:5716200:03:2017402:35:16 06:39:21 
19448 DALE LESSVALDESE NC10600:27:4519800:07:1518203:15:0618400:04:1819102:46:26 06:40:48 
19526MCJEREMIAH WOLFEDANVILLE KY15300:30:5821200:08:2020503:31:3620500:06:2215602:24:07 06:41:20 
19643 LARS LARSONWILLIAMSBURG VA19400:33:3212900:04:5314703:05:1918300:04:1220002:57:15 06:45:09 
19739 JIM MILESCARY NC15800:31:1014100:05:1321603:43:4412600:02:3115502:23:29 06:46:05 
19841 RICHARD KORPIBRIDGEWATER VA17600:32:0321000:08:1119603:23:3419500:05:4217602:38:05 06:47:34 
19936 JEFFREY SOOHOORALEIGH NC16900:31:4514300:05:1519303:20:3615700:03:0719502:47:54 06:48:35 
20039 JERRY RICCIARDIWASHINGTON DC5400:24:532100:02:2021203:40:1911700:02:2218002:39:05 06:48:57Y
20150CFRANK SMITHWINSTON SALEM NC15700:31:0815400:05:2719203:19:4119400:05:3719602:48:03 06:49:53 
20235MCALBESA FREDERICPORTSMOUTH VA22000:40:0921300:08:2616703:09:4520600:06:5519202:46:29 06:51:41 
20329 SEAN YOUNGMCLEAN VA11400:28:1915700:05:4716803:09:4619700:05:4820403:12:19 07:01:57Y
20446 SCOTT CAMPBELLRICHMOND VA7600:26:0318400:06:3921303:40:2720000:05:5518602:43:50 07:02:52 
20524 SAMUEL SILVERMANNORFOLK VA20400:34:2914600:05:1920103:29:488400:01:5819902:52:50 07:04:22 
20650 LARRY FRIEDKINMOSELEY VA21600:38:2318900:06:4920703:32:5221000:08:1418202:39:29 07:05:45 
20737 JUSTIN DURSTBURKE VA16400:31:3021600:09:0721503:41:4421100:10:4519002:46:15 07:19:20 
20847CRICHARD PINSKEYARLINGTON VA20700:35:1919700:07:1521103:34:5619200:05:2320102:59:0200:04:0007:25:53 
20921 MICHAEL CRISCIHOLBROOK NY17800:32:0720900:08:1121804:05:56     07:38:24 
21032 GENE YOSHIDAARLINGTON VA18800:33:0318300:06:3721703:56:4619900:05:5320303:06:40 07:48:57 
21133MCROBERT KROESEMERALD ISLE NC21800:39:1521800:09:4322004:48:2020800:07:2319702:51:06 08:35:45 
21229 DEREK MCGINNISFORT SAM HOUSTON TX22500:43:23           
21330 ROBERT GREENMIDLOTHIAN VA9100:26:401700:02:083602:38:021800:01:09     
21446CGARY DEANSILVER SPRING MD20900:36:0117100:06:1318403:15:2911200:02:16     
21540 MICHAEL MCCLENAHANLANSDOWNE VA6600:25:309400:03:579102:50:4011500:02:19     
21648 JOSEPH PAZNEW HOPE PA10300:27:3314900:05:2111502:56:0312300:02:27     
PlaceAgeCat.NAMECITY/STATERankSWIMRankT1RankBIKERankT2RankRUNPENALTYTIMEDQ
21742CISIDORO REVERTEHERNDON VA7200:25:5119500:07:055802:44:4115100:03:00     
21847 JOHN CRITZNELLYSFORD VA12200:28:4117600:06:2020903:34:0416100:03:16     
21944UMFRANK TANTILLONEW YORK NY18700:33:0216600:06:0215203:06:2216900:03:39     
22064 KEVIN MORGANCARRBORO NC13200:29:3022100:11:2220003:29:0418100:04:08     
22122 SCOTT BACCILEESBURG VA11800:28:2918500:06:3918703:17:5318600:04:35     
22242CRONALD HOUGHAMBERRYVILLE VA600:20:185800:03:1417703:13:5419800:05:52    Y
22338 MATTHEW HANSHAWHARRISBURG PA9400:26:494700:03:0313303:02:2320100:05:59     
22432UMANDREW GREVEMATHEWS VA7000:25:448900:03:502702:36:17       
22535UMJAMES MORRISONNEW YORK NY12100:28:347500:03:325202:43:21       
22659UMRORY CONOLLYCHAPEL HILL NC19000:33:0521700:09:1813903:04:04       
22756UMALONZO CRITTENDENALEXANDRIA VA16800:31:4113600:05:0320203:29:50       
22823MCJOSE GONZALESFORT SAM HOUSTON TX21500:36:5322000:11:0020803:33:05       
22948CKIP JAWISHFREDERICK MD8200:26:251800:02:15         
23030 IAIN BANKSBOWIE MD7500:25:5710700:04:22         
23146 GREG MILLERSUFFOLK VA22100:40:4421900:09:55         

** Results are for the private use of participants and are the Intellectual Property of Set Up Events. Unauthorized use of these results is prohibited.